createdAt,value
2019-03-27T00:00:03.066Z,10.34
2019-03-27T00:02:34.786Z,10.35
2019-03-27T00:05:05.023Z,10.15
2019-03-27T00:07:35.096Z,10.24
2019-03-27T00:10:06.232Z,10.19
2019-03-27T00:12:36.293Z,10.21
2019-03-27T00:15:13.119Z,10.22
2019-03-27T00:17:39.919Z,10.27
2019-03-27T00:20:11.574Z,10.29
2019-03-27T00:22:42.716Z,10.29
2019-03-27T00:25:13.068Z,10.31
2019-03-27T00:27:43.242Z,10.31
2019-03-27T00:30:13.317Z,10.31
2019-03-27T00:32:43.390Z,10.27
2019-03-27T00:35:13.556Z,10.25
2019-03-27T00:37:43.616Z,10.25
2019-03-27T00:40:13.983Z,10.24
2019-03-27T00:42:44.061Z,10.22
2019-03-27T00:45:25.925Z,10.19
2019-03-27T00:47:45.969Z,10.16
2019-03-27T00:50:16.136Z,10.12
2019-03-27T00:52:46.192Z,10.12
2019-03-27T00:55:16.646Z,10.08
2019-03-27T00:57:46.740Z,10.06
2019-03-27T01:00:24.889Z,10.05
2019-03-27T01:02:54.965Z,10.04
2019-03-27T01:05:25.035Z,9.94
2019-03-27T01:07:55.104Z,9.91
2019-03-27T01:10:25.184Z,9.87
2019-03-27T01:12:55.244Z,9.90
2019-03-27T01:15:38.877Z,9.85
2019-03-27T01:17:57.109Z,9.80
2019-03-27T01:20:27.164Z,9.73
2019-03-27T01:22:58.219Z,9.65
2019-03-27T01:25:28.279Z,9.61
2019-03-27T01:27:58.333Z,9.60
2019-03-27T01:30:29.372Z,9.55
2019-03-27T01:33:00.400Z,9.57
2019-03-27T01:35:30.471Z,9.55
2019-03-27T01:38:01.508Z,9.60
2019-03-27T01:40:32.548Z,9.60
2019-03-27T01:43:02.614Z,9.57
2019-03-27T01:45:32.696Z,9.54
2019-03-27T01:48:02.754Z,9.58
2019-03-27T01:50:32.834Z,9.53
2019-03-27T01:53:02.911Z,9.57
2019-03-27T01:55:33.013Z,9.53
2019-03-27T01:58:03.067Z,9.49
2019-03-27T02:00:33.220Z,9.52
2019-03-27T02:03:03.280Z,9.44
2019-03-27T02:05:33.331Z,9.38
2019-03-27T02:08:03.406Z,9.39
2019-03-27T02:10:33.459Z,9.36
2019-03-27T02:13:03.549Z,9.29
2019-03-27T02:15:33.600Z,9.36
2019-03-27T02:18:03.699Z,9.31
2019-03-27T02:20:33.759Z,9.31
2019-03-27T02:23:03.837Z,9.29
2019-03-27T02:25:33.884Z,9.35
2019-03-27T02:28:03.969Z,9.31
2019-03-27T02:30:34.035Z,9.34
2019-03-27T02:33:04.137Z,9.40
2019-03-27T02:35:34.184Z,9.38
2019-03-27T02:38:04.299Z,9.36
2019-03-27T02:40:34.371Z,9.31
2019-03-27T02:43:04.411Z,9.35
2019-03-27T02:45:34.466Z,9.17
2019-03-27T02:48:04.527Z,9.26
2019-03-27T02:50:34.589Z,9.21
2019-03-27T02:53:04.713Z,9.20
2019-03-27T02:55:34.824Z,9.29
2019-03-27T02:58:04.954Z,9.32
2019-03-27T03:00:35.289Z,9.28
2019-03-27T03:03:05.394Z,9.27
2019-03-27T03:05:35.447Z,9.24
2019-03-27T03:08:05.625Z,9.18
2019-03-27T03:10:35.699Z,9.23
2019-03-27T03:13:05.758Z,9.31
2019-03-27T03:15:35.812Z,9.37
2019-03-27T03:18:05.865Z,9.42
2019-03-27T03:20:35.936Z,9.36
2019-03-27T03:23:05.998Z,9.43
2019-03-27T03:25:36.456Z,9.51
2019-03-27T03:28:06.519Z,9.47
2019-03-27T03:30:36.575Z,9.49
2019-03-27T03:33:06.684Z,9.43
2019-03-27T03:35:36.737Z,9.43
2019-03-27T03:38:06.806Z,9.40
2019-03-27T03:40:37.927Z,9.29
2019-03-27T03:43:09.341Z,9.26
2019-03-27T03:45:39.409Z,9.28
2019-03-27T03:48:09.472Z,9.33
2019-03-27T03:50:44.119Z,9.25
2019-03-27T03:53:15.345Z,9.26
2019-03-27T03:55:45.616Z,9.32
2019-03-27T03:58:16.825Z,9.36
2019-03-27T04:00:48.132Z,9.39
2019-03-27T04:03:18.329Z,9.38
2019-03-27T04:05:48.386Z,9.43
2019-03-27T04:08:18.465Z,9.31
2019-03-27T04:10:48.519Z,9.10
2019-03-27T04:13:18.584Z,9.12
2019-03-27T04:15:48.655Z,9.24
2019-03-27T04:18:18.727Z,9.23
2019-03-27T04:20:48.807Z,9.23
2019-03-27T04:23:18.861Z,9.30
2019-03-27T04:26:09.007Z,9.31
2019-03-27T04:28:20.739Z,9.31
2019-03-27T04:30:50.823Z,9.36
2019-03-27T04:33:20.883Z,9.41
2019-03-27T04:35:50.957Z,9.33
2019-03-27T04:38:21.992Z,9.42
2019-03-27T04:40:52.077Z,9.46
2019-03-27T04:43:22.136Z,9.40
2019-03-27T04:45:52.476Z,9.43
2019-03-27T04:48:22.555Z,9.52
2019-03-27T04:50:52.627Z,9.52
2019-03-27T04:53:22.730Z,9.57
2019-03-27T04:55:52.813Z,9.61
2019-03-27T04:58:22.888Z,9.69
2019-03-27T05:00:52.939Z,9.68
2019-03-27T05:03:23.117Z,9.65
2019-03-27T05:05:53.189Z,9.68
2019-03-27T05:08:23.300Z,9.62
2019-03-27T05:10:54.443Z,9.60
2019-03-27T05:13:24.515Z,9.57
2019-03-27T05:15:54.588Z,9.62
2019-03-27T05:18:24.640Z,9.66
2019-03-27T05:20:54.714Z,9.67
2019-03-27T05:23:24.783Z,9.60
2019-03-27T05:25:54.887Z,9.57
2019-03-27T05:28:24.942Z,9.59
2019-03-27T05:30:55.027Z,9.64
2019-03-27T05:33:25.107Z,9.55
2019-03-27T05:35:55.220Z,9.59
2019-03-27T05:38:25.286Z,9.60
2019-03-27T05:40:57.847Z,9.62
2019-03-27T05:43:27.922Z,9.68
2019-03-27T05:45:57.986Z,9.69
2019-03-27T05:48:28.048Z,9.75
2019-03-27T05:50:58.140Z,9.70
2019-03-27T05:53:28.235Z,9.60
2019-03-27T05:55:58.406Z,9.66
2019-03-27T05:58:28.483Z,9.56
2019-03-27T06:00:58.589Z,9.53
2019-03-27T06:03:28.645Z,9.61
2019-03-27T06:05:58.757Z,9.64
2019-03-27T06:08:28.821Z,9.61
2019-03-27T06:10:58.899Z,9.65
2019-03-27T06:13:28.971Z,9.62
2019-03-27T06:15:59.051Z,9.65
2019-03-27T06:18:29.121Z,9.64
2019-03-27T06:20:59.264Z,9.58
2019-03-27T06:23:29.382Z,9.57
2019-03-27T06:25:59.460Z,9.64
2019-03-27T06:28:29.559Z,9.64
2019-03-27T06:30:59.637Z,9.77
2019-03-27T06:33:29.713Z,9.82
2019-03-27T06:35:59.811Z,9.74
2019-03-27T06:38:29.883Z,9.84
2019-03-27T06:40:59.965Z,9.86
2019-03-27T06:43:30.048Z,9.90
2019-03-27T06:46:00.187Z,9.89
2019-03-27T06:48:30.299Z,9.67
2019-03-27T06:51:00.404Z,9.77
2019-03-27T06:53:30.467Z,9.46
2019-03-27T06:56:00.533Z,9.37
2019-03-27T06:58:30.600Z,9.53
2019-03-27T07:01:00.749Z,9.49
2019-03-27T07:03:30.845Z,9.56
2019-03-27T07:06:00.895Z,9.49
2019-03-27T07:08:30.992Z,9.70
2019-03-27T07:11:01.065Z,9.75
2019-03-27T07:13:31.177Z,9.79
2019-03-27T07:16:01.244Z,9.86
2019-03-27T07:18:40.125Z,9.89
2019-03-27T07:21:03.059Z,9.88
2019-03-27T07:23:33.148Z,9.82
2019-03-27T07:26:03.281Z,9.89
2019-03-27T07:28:33.360Z,9.71
2019-03-27T07:31:03.419Z,9.79
2019-03-27T07:33:33.541Z,9.76
2019-03-27T07:36:03.697Z,9.69
2019-03-27T07:38:33.826Z,9.66
2019-03-27T07:41:03.970Z,10.00
2019-03-27T07:43:34.548Z,10.08
2019-03-27T07:46:05.936Z,10.14
2019-03-27T07:48:36.017Z,10.01
2019-03-27T07:51:06.178Z,9.90
2019-03-27T07:53:36.421Z,9.83
2019-03-27T07:56:06.523Z,10.00
2019-03-27T07:58:36.779Z,10.11
2019-03-27T08:01:06.957Z,10.42
2019-03-27T08:03:37.039Z,10.35
2019-03-27T08:06:07.162Z,10.30
2019-03-27T08:08:37.254Z,10.46
2019-03-27T08:11:07.348Z,10.64
2019-03-27T08:13:37.525Z,10.65
2019-03-27T08:16:07.643Z,10.68
2019-03-27T08:18:37.795Z,10.99
2019-03-27T08:21:09.029Z,11.23
2019-03-27T08:23:39.188Z,11.23
2019-03-27T08:26:09.295Z,11.16
2019-03-27T08:28:39.440Z,10.91
2019-03-27T08:31:09.528Z,11.13
2019-03-27T08:33:39.597Z,11.19
2019-03-27T08:36:09.754Z,11.44
2019-03-27T08:38:39.815Z,11.53
2019-03-27T08:41:09.983Z,11.72
2019-03-27T08:43:40.053Z,11.79
2019-03-27T08:46:10.200Z,11.80
2019-03-27T08:48:40.325Z,11.58
2019-03-27T08:51:10.523Z,11.69
2019-03-27T08:53:40.633Z,11.74
2019-03-27T08:56:10.776Z,11.66
2019-03-27T08:58:40.939Z,11.65
2019-03-27T09:01:11.105Z,11.65
2019-03-27T09:03:41.217Z,11.53
2019-03-27T09:06:11.307Z,11.47
2019-03-27T09:08:41.401Z,11.54
2019-03-27T09:11:11.581Z,11.35
2019-03-27T09:13:41.692Z,11.49
2019-03-27T09:16:11.842Z,11.49
2019-03-27T09:18:42.067Z,11.47
2019-03-27T09:21:12.349Z,11.51
2019-03-27T09:23:45.788Z,11.70
2019-03-27T09:26:15.302Z,11.83
2019-03-27T09:28:45.381Z,11.94
2019-03-27T09:31:15.455Z,11.91
2019-03-27T09:33:45.678Z,12.06
2019-03-27T09:36:16.568Z,12.14
2019-03-27T09:38:46.723Z,12.09
2019-03-27T09:41:16.796Z,12.43
2019-03-27T09:43:46.989Z,12.44
2019-03-27T09:46:17.131Z,12.55
2019-03-27T09:48:47.317Z,12.87
2019-03-27T09:51:17.468Z,12.93
2019-03-27T09:53:47.558Z,12.92
2019-03-27T09:56:19.356Z,13.17
2019-03-27T09:58:49.540Z,13.10
2019-03-27T10:01:19.651Z,13.21
2019-03-27T10:03:49.774Z,13.41
2019-03-27T10:06:19.889Z,13.14
2019-03-27T10:08:50.004Z,13.01
2019-03-27T10:11:23.816Z,13.17
2019-03-27T10:13:52.926Z,13.33
2019-03-27T10:16:22.977Z,13.22
2019-03-27T10:18:53.061Z,13.03
2019-03-27T10:21:23.138Z,13.47
2019-03-27T10:23:53.216Z,13.46
2019-03-27T10:26:23.392Z,13.43
2019-03-27T10:28:53.551Z,13.52
2019-03-27T10:31:23.610Z,13.53
2019-03-27T10:33:53.720Z,13.34
2019-03-27T10:36:23.843Z,13.34
2019-03-27T10:38:53.912Z,13.43
2019-03-27T10:41:25.018Z,13.36
2019-03-27T10:43:55.129Z,13.59
2019-03-27T10:46:26.279Z,13.74
2019-03-27T10:48:56.389Z,13.77
2019-03-27T10:51:26.472Z,13.75
2019-03-27T10:53:56.560Z,13.56
2019-03-27T10:56:26.636Z,13.58
2019-03-27T10:58:56.788Z,13.33
2019-03-27T11:01:26.871Z,13.35
2019-03-27T11:03:57.055Z,13.51
2019-03-27T11:06:27.216Z,13.55
2019-03-27T11:08:57.295Z,13.84
2019-03-27T11:11:27.403Z,14.00
2019-03-27T11:13:57.476Z,13.91
2019-03-27T11:16:27.570Z,14.13
2019-03-27T11:18:57.642Z,14.12
2019-03-27T11:21:27.726Z,14.11
2019-03-27T11:23:57.799Z,14.09
2019-03-27T11:26:27.900Z,14.08
2019-03-27T11:28:58.938Z,14.33
2019-03-27T11:31:29.060Z,14.22
2019-03-27T11:33:59.131Z,14.26
2019-03-27T11:36:29.278Z,14.23
2019-03-27T11:38:59.397Z,14.47
2019-03-27T11:41:29.481Z,14.41
2019-03-27T11:43:59.648Z,14.47
2019-03-27T11:46:34.435Z,14.09
2019-03-27T11:49:04.724Z,13.98
2019-03-27T11:51:34.793Z,13.85
2019-03-27T11:54:05.023Z,13.88
2019-03-27T11:56:35.106Z,13.93
2019-03-27T11:59:05.274Z,14.06
2019-03-27T12:01:41.970Z,14.11
2019-03-27T12:04:07.173Z,14.14
2019-03-27T12:06:37.252Z,14.14
2019-03-27T12:09:08.190Z,14.20
2019-03-27T12:11:38.797Z,14.34
2019-03-27T12:14:12.077Z,14.08
2019-03-27T12:16:40.647Z,14.32
2019-03-27T12:19:10.721Z,14.39
2019-03-27T12:21:40.821Z,14.00
2019-03-27T12:24:10.881Z,13.96
2019-03-27T12:26:40.972Z,13.95
2019-03-27T12:29:11.041Z,13.91
2019-03-27T12:31:41.143Z,13.90
2019-03-27T12:34:11.231Z,14.08
2019-03-27T12:36:41.412Z,14.33
2019-03-27T12:39:11.496Z,14.25
2019-03-27T12:41:41.642Z,14.65
2019-03-27T12:44:11.719Z,14.48
2019-03-27T12:46:41.807Z,14.30
2019-03-27T12:49:11.880Z,14.25
2019-03-27T12:51:41.948Z,14.46
2019-03-27T12:54:12.350Z,14.51
2019-03-27T12:56:42.454Z,14.60
2019-03-27T12:59:12.539Z,14.79
2019-03-27T13:01:42.627Z,14.90
2019-03-27T13:04:13.710Z,14.77
2019-03-27T13:06:43.958Z,14.57
2019-03-27T13:09:14.026Z,14.80
2019-03-27T13:11:44.118Z,14.83
2019-03-27T13:14:14.170Z,14.91
2019-03-27T13:16:44.265Z,14.86
2019-03-27T13:19:14.372Z,14.74
2019-03-27T13:21:44.460Z,14.77
2019-03-27T13:24:14.600Z,14.66
2019-03-27T13:26:46.836Z,14.96
2019-03-27T13:29:17.009Z,14.40
2019-03-27T13:31:47.093Z,14.72
2019-03-27T13:34:17.183Z,14.64
2019-03-27T13:36:48.794Z,14.97
2019-03-27T13:39:18.955Z,15.11
2019-03-27T13:41:49.003Z,15.14
2019-03-27T13:44:19.168Z,14.93
2019-03-27T13:46:49.272Z,14.95
2019-03-27T13:49:19.392Z,15.11
2019-03-27T13:51:49.437Z,15.03
2019-03-27T13:54:19.605Z,15.06
2019-03-27T13:56:49.668Z,15.21
2019-03-27T13:59:19.748Z,14.83
2019-03-27T14:01:49.836Z,14.99
2019-03-27T14:04:20.526Z,15.05
2019-03-27T14:06:50.716Z,14.90
2019-03-27T14:09:20.951Z,15.08
2019-03-27T14:11:51.006Z,14.84
2019-03-27T14:14:21.071Z,14.79
2019-03-27T14:16:52.178Z,14.82
2019-03-27T14:19:22.333Z,14.93
2019-03-27T14:21:54.872Z,14.71
2019-03-27T14:24:24.224Z,14.55
2019-03-27T14:26:54.295Z,14.59
2019-03-27T14:29:24.353Z,14.45
2019-03-27T14:31:54.443Z,14.22
2019-03-27T14:34:24.503Z,14.09
2019-03-27T14:36:55.588Z,14.24
2019-03-27T14:39:25.755Z,14.42
2019-03-27T14:41:55.859Z,14.37
2019-03-27T14:44:26.633Z,14.57
2019-03-27T14:46:57.585Z,14.69
2019-03-27T14:49:27.650Z,14.68
2019-03-27T14:52:07.693Z,14.84
2019-03-27T14:54:29.444Z,14.49
2019-03-27T14:56:59.520Z,14.38
2019-03-27T14:59:29.579Z,14.40
2019-03-27T15:01:59.659Z,14.46
2019-03-27T15:04:29.764Z,14.45
2019-03-27T15:06:59.809Z,14.42
2019-03-27T15:09:29.961Z,14.48
2019-03-27T15:12:00.186Z,14.09
2019-03-27T15:14:30.266Z,14.36
2019-03-27T15:17:00.367Z,14.43
2019-03-27T15:19:30.489Z,14.55
2019-03-27T15:22:00.595Z,14.62
2019-03-27T15:24:31.554Z,14.71
2019-03-27T15:27:01.647Z,14.76
2019-03-27T15:29:31.992Z,14.57
2019-03-27T15:32:02.117Z,14.33
2019-03-27T15:34:32.261Z,14.09
2019-03-27T15:37:02.389Z,14.41
2019-03-27T15:39:32.493Z,14.52
2019-03-27T15:42:02.559Z,14.43
2019-03-27T15:44:32.819Z,14.24
2019-03-27T15:47:03.006Z,14.04
2019-03-27T15:49:33.320Z,14.13
2019-03-27T15:52:03.574Z,14.00
2019-03-27T15:54:33.709Z,14.07
2019-03-27T15:57:03.927Z,14.08
2019-03-27T15:59:34.058Z,14.05
2019-03-27T16:02:06.102Z,13.83
2019-03-27T16:04:38.737Z,14.23
2019-03-27T16:07:09.423Z,14.16
2019-03-27T16:09:39.666Z,14.04
2019-03-27T16:12:09.816Z,14.04
2019-03-27T16:14:39.917Z,14.08
2019-03-27T16:17:13.542Z,14.07
2019-03-27T16:19:42.655Z,14.20
2019-03-27T16:22:12.740Z,14.23
2019-03-27T16:24:42.875Z,14.14
2019-03-27T16:27:13.919Z,14.28
2019-03-27T16:29:44.045Z,14.10
2019-03-27T16:32:14.172Z,13.99
2019-03-27T16:34:44.289Z,13.95
2019-03-27T16:37:14.354Z,14.13
2019-03-27T16:39:44.464Z,14.14
2019-03-27T16:42:14.531Z,14.05
2019-03-27T16:44:44.659Z,14.13
2019-03-27T16:47:14.814Z,14.30
2019-03-27T16:49:45.035Z,14.38
2019-03-27T16:52:15.104Z,14.36
2019-03-27T16:54:45.202Z,14.41
2019-03-27T16:57:15.287Z,14.43
2019-03-27T16:59:45.392Z,14.45
2019-03-27T17:02:15.472Z,14.47
2019-03-27T17:04:45.617Z,14.45
2019-03-27T17:07:16.751Z,14.40
2019-03-27T17:09:46.804Z,14.44
2019-03-27T17:12:17.042Z,14.42
2019-03-27T17:14:47.101Z,14.43
2019-03-27T17:17:17.198Z,14.43
2019-03-27T17:19:47.276Z,14.43
2019-03-27T17:22:19.777Z,14.44
2019-03-27T17:24:49.268Z,14.48
2019-03-27T17:27:19.379Z,14.54
2019-03-27T17:29:49.444Z,14.50
2019-03-27T17:32:19.513Z,14.46
2019-03-27T17:34:51.967Z,14.42
2019-03-27T17:37:21.418Z,14.40
2019-03-27T17:39:51.480Z,14.37
2019-03-27T17:42:21.662Z,14.44
2019-03-27T17:44:52.249Z,14.45
2019-03-27T17:47:22.432Z,14.45
2019-03-27T17:49:52.537Z,14.46
2019-03-27T17:52:22.613Z,14.37
2019-03-27T17:54:52.724Z,14.41
2019-03-27T17:57:22.810Z,14.45
2019-03-27T17:59:52.938Z,14.45
2019-03-27T18:02:23.573Z,14.44
2019-03-27T18:04:53.655Z,14.44
2019-03-27T18:07:23.807Z,14.46
2019-03-27T18:09:53.910Z,14.45
2019-03-27T18:12:24.044Z,14.45
2019-03-27T18:14:54.139Z,14.42
2019-03-27T18:17:24.291Z,14.40
2019-03-27T18:19:54.382Z,14.42
2019-03-27T18:22:24.523Z,14.43
2019-03-27T18:24:54.616Z,14.32
2019-03-27T18:27:24.714Z,14.34
2019-03-27T18:29:54.977Z,14.33
2019-03-27T18:32:25.121Z,14.38
2019-03-27T18:34:55.251Z,14.38
2019-03-27T18:37:26.494Z,14.40
2019-03-27T18:39:56.548Z,14.43
2019-03-27T18:42:26.655Z,14.40
2019-03-27T18:44:56.701Z,14.43
2019-03-27T18:47:27.740Z,14.42
2019-03-27T18:49:57.891Z,14.46
2019-03-27T18:52:31.035Z,14.49
2019-03-27T18:55:01.160Z,14.47
2019-03-27T18:57:31.224Z,14.47
2019-03-27T19:00:01.326Z,14.50
2019-03-27T19:02:31.376Z,14.50
2019-03-27T19:05:01.476Z,14.54
2019-03-27T19:07:31.541Z,14.68
2019-03-27T19:10:01.644Z,14.74
2019-03-27T19:12:31.802Z,14.71
2019-03-27T19:15:01.948Z,14.82
2019-03-27T19:17:32.140Z,14.76
2019-03-27T19:20:02.671Z,14.79
2019-03-27T19:22:32.861Z,14.63
2019-03-27T19:25:02.947Z,14.77
2019-03-27T19:27:33.097Z,14.77
2019-03-27T19:30:03.258Z,14.74
2019-03-27T19:32:33.418Z,14.76
2019-03-27T19:35:03.508Z,14.76
2019-03-27T19:37:33.658Z,14.78
2019-03-27T19:40:04.127Z,14.74
2019-03-27T19:42:34.302Z,14.73
2019-03-27T19:45:04.941Z,14.72
2019-03-27T19:47:35.196Z,14.75
2019-03-27T19:50:06.221Z,14.73
2019-03-27T19:52:36.342Z,14.73
2019-03-27T19:55:07.332Z,14.68
2019-03-27T19:57:37.428Z,14.64
2019-03-27T20:00:09.780Z,14.69
2019-03-27T20:02:40.048Z,14.64
2019-03-27T20:05:10.261Z,14.58
2019-03-27T20:07:40.327Z,14.54
2019-03-27T20:10:10.968Z,14.62
2019-03-27T20:12:41.105Z,14.52
2019-03-27T20:15:12.840Z,14.55
2019-03-27T20:17:43.274Z,14.55
2019-03-27T20:20:13.536Z,14.60
2019-03-27T20:22:43.626Z,14.61
2019-03-27T20:25:14.915Z,14.60
2019-03-27T20:27:45.264Z,14.62
2019-03-27T20:30:16.245Z,14.57
2019-03-27T20:32:46.444Z,14.62
2019-03-27T20:35:16.529Z,14.58
2019-03-27T20:37:46.591Z,14.56
2019-03-27T20:40:16.830Z,14.56
2019-03-27T20:42:46.961Z,14.60
2019-03-27T20:45:18.213Z,14.61
2019-03-27T20:47:48.323Z,14.26
2019-03-27T20:50:18.702Z,14.53
2019-03-27T20:52:48.777Z,14.51
2019-03-27T20:55:29.552Z,14.51
2019-03-27T20:57:50.669Z,14.47
2019-03-27T21:00:21.100Z,14.43
2019-03-27T21:02:51.256Z,14.51
2019-03-27T21:05:21.478Z,14.50
2019-03-27T21:07:51.663Z,14.43
2019-03-27T21:10:21.920Z,14.40
2019-03-27T21:12:51.975Z,14.33
2019-03-27T21:15:22.093Z,14.24
2019-03-27T21:17:52.175Z,14.26
2019-03-27T21:20:22.275Z,14.18
2019-03-27T21:22:52.329Z,14.25
2019-03-27T21:25:22.452Z,14.21
2019-03-27T21:27:52.611Z,14.20
2019-03-27T21:30:22.693Z,14.17
2019-03-27T21:32:52.819Z,14.09
2019-03-27T21:35:23.016Z,14.02
2019-03-27T21:37:53.160Z,14.09
2019-03-27T21:40:23.251Z,14.12
2019-03-27T21:42:54.602Z,14.12
2019-03-27T21:45:24.805Z,14.12
2019-03-27T21:47:54.893Z,14.09
2019-03-27T21:50:25.050Z,14.13
2019-03-27T21:53:00.805Z,14.12
2019-03-27T21:55:26.959Z,14.13
2019-03-27T21:57:57.195Z,14.16
2019-03-27T22:00:45.255Z,14.21
2019-03-27T22:03:15.324Z,14.26
2019-03-27T22:05:45.620Z,14.28
2019-03-27T22:08:15.707Z,14.24
2019-03-27T22:10:45.929Z,14.28
2019-03-27T22:13:16.023Z,14.25
2019-03-27T22:15:46.157Z,14.21
2019-03-27T22:18:16.270Z,14.24
2019-03-27T22:20:46.402Z,14.24
2019-03-27T22:23:16.512Z,14.24
2019-03-27T22:25:46.927Z,14.21
2019-03-27T22:28:17.060Z,14.12
2019-03-27T22:30:47.159Z,14.09
2019-03-27T22:33:17.395Z,14.06
2019-03-27T22:35:47.524Z,14.06
2019-03-27T22:38:17.660Z,14.05
2019-03-27T22:40:47.785Z,14.06
2019-03-27T22:43:17.959Z,14.02
2019-03-27T22:45:48.065Z,14.01
2019-03-27T22:48:18.178Z,14.01
2019-03-27T22:50:48.333Z,13.89
2019-03-27T22:53:18.452Z,13.83
2019-03-27T22:55:50.181Z,13.78
2019-03-27T22:58:20.432Z,13.76
2019-03-27T23:00:52.370Z,13.73
2019-03-27T23:03:22.842Z,13.73
2019-03-27T23:05:52.958Z,13.79
2019-03-27T23:08:24.138Z,13.79
2019-03-27T23:10:54.340Z,13.78
2019-03-27T23:13:24.484Z,13.79
2019-03-27T23:15:54.621Z,13.69
2019-03-27T23:18:24.728Z,13.74
2019-03-27T23:20:54.898Z,13.73
2019-03-27T23:23:25.006Z,13.62
2019-03-27T23:26:02.924Z,13.50
2019-03-27T23:28:26.938Z,13.47
2019-03-27T23:30:57.087Z,13.44
2019-03-27T23:33:28.311Z,13.44
2019-03-27T23:35:58.458Z,13.42
2019-03-27T23:38:28.561Z,13.27
2019-03-27T23:40:58.729Z,13.21
2019-03-27T23:43:28.832Z,13.21
2019-03-27T23:45:59.037Z,13.17
2019-03-27T23:48:29.553Z,13.16
2019-03-27T23:50:59.644Z,13.17
2019-03-27T23:53:29.848Z,13.20
2019-03-27T23:55:59.975Z,13.24
2019-03-27T23:58:30.119Z,13.27
